sensor_id;sensor_type;location;lat;lon;timestamp;pressure;altitude;pressure_sealevel;temperature;humidity
47366;BME280;33105;47.964;7.982;2024-03-06T00:02:43;96726.94;;;5.28;100.00
47366;BME280;33105;47.964;7.982;2024-03-06T00:05:44;96730.97;;;5.37;100.00
47366;BME280;33105;47.964;7.982;2024-03-06T00:08:45;96737.22;;;5.38;100.00
47366;BME280;33105;47.964;7.982;2024-03-06T00:11:47;96737.63;;;5.23;100.00
47366;BME280;33105;47.964;7.982;2024-03-06T00:14:48;96736.25;;;5.32;100.00
47366;BME280;33105;47.964;7.982;2024-03-06T00:17:49;96730.91;;;5.26;100.00
47366;BME280;33105;47.964;7.982;2024-03-06T00:20:50;96743.06;;;5.05;100.00
47366;BME280;33105;47.964;7.982;2024-03-06T00:23:52;96737.84;;;4.92;100.00
47366;BME280;33105;47.964;7.982;2024-03-06T00:26:53;96732.84;;;5.07;100.00
47366;BME280;33105;47.964;7.982;2024-03-06T00:29:54;96737.72;;;5.17;100.00
47366;BME280;33105;47.964;7.982;2024-03-06T00:32:55;96746.19;;;5.20;100.00
47366;BME280;33105;47.964;7.982;2024-03-06T00:35:57;96745.44;;;5.31;100.00
47366;BME280;33105;47.964;7.982;2024-03-06T00:38:58;96743.25;;;5.40;100.00
47366;BME280;33105;47.964;7.982;2024-03-06T00:42:00;96743.31;;;5.33;100.00
47366;BME280;33105;47.964;7.982;2024-03-06T00:45:01;96755.16;;;5.21;100.00
47366;BME280;33105;47.964;7.982;2024-03-06T00:48:03;96754.56;;;5.19;100.00
47366;BME280;33105;47.964;7.982;2024-03-06T00:51:05;96757.41;;;5.24;100.00
47366;BME280;33105;47.964;7.982;2024-03-06T00:54:08;96757.03;;;5.20;100.00
47366;BME280;33105;47.964;7.982;2024-03-06T00:57:09;96756.09;;;5.15;100.00
47366;BME280;33105;47.964;7.982;2024-03-06T01:00:11;96760.66;;;5.14;100.00
47366;BME280;33105;47.964;7.982;2024-03-06T01:03:12;96762.78;;;5.12;100.00
47366;BME280;33105;47.964;7.982;2024-03-06T01:06:13;96759.63;;;5.15;100.00
47366;BME280;33105;47.964;7.982;2024-03-06T01:09:14;96766.47;;;5.18;100.00
47366;BME280;33105;47.964;7.982;2024-03-06T01:12:16;96767.75;;;5.15;100.00
47366;BME280;33105;47.964;7.982;2024-03-06T01:15:19;96762.53;;;5.13;100.00
47366;BME280;33105;47.964;7.982;2024-03-06T01:18:20;96765.56;;;5.05;100.00
47366;BME280;33105;47.964;7.982;2024-03-06T01:21:21;96762.41;;;4.90;100.00
47366;BME280;33105;47.964;7.982;2024-03-06T01:24:22;96767.00;;;4.90;100.00
47366;BME280;33105;47.964;7.982;2024-03-06T01:27:24;96773.53;;;4.64;100.00
47366;BME280;33105;47.964;7.982;2024-03-06T01:30:25;96769.41;;;4.79;100.00
47366;BME280;33105;47.964;7.982;2024-03-06T01:33:26;96777.59;;;4.91;100.00
47366;BME280;33105;47.964;7.982;2024-03-06T01:36:27;96777.28;;;4.81;100.00
47366;BME280;33105;47.964;7.982;2024-03-06T01:39:28;96780.28;;;4.73;100.00
47366;BME280;33105;47.964;7.982;2024-03-06T01:42:30;96778.56;;;4.78;100.00
47366;BME280;33105;47.964;7.982;2024-03-06T01:45:31;96773.47;;;4.89;100.00
47366;BME280;33105;47.964;7.982;2024-03-06T01:48:34;96773.03;;;4.92;100.00
47366;BME280;33105;47.964;7.982;2024-03-06T01:51:36;96771.38;;;4.91;100.00
47366;BME280;33105;47.964;7.982;2024-03-06T01:54:38;96775.56;;;4.87;100.00
47366;BME280;33105;47.964;7.982;2024-03-06T01:57:40;96770.59;;;4.84;100.00
47366;BME280;33105;47.964;7.982;2024-03-06T02:00:42;96776.16;;;4.70;100.00
47366;BME280;33105;47.964;7.982;2024-03-06T02:03:44;96783.97;;;4.78;100.00
47366;BME280;33105;47.964;7.982;2024-03-06T02:06:47;96781.22;;;4.85;100.00
47366;BME280;33105;47.964;7.982;2024-03-06T02:09:48;96780.31;;;4.91;100.00
47366;BME280;33105;47.964;7.982;2024-03-06T02:12:49;96790.16;;;4.86;100.00
47366;BME280;33105;47.964;7.982;2024-03-06T02:15:51;96789.16;;;4.80;100.00
47366;BME280;33105;47.964;7.982;2024-03-06T02:18:53;96788.50;;;4.66;100.00
47366;BME280;33105;47.964;7.982;2024-03-06T02:21:55;96784.91;;;4.91;100.00
47366;BME280;33105;47.964;7.982;2024-03-06T02:24:56;96780.69;;;5.13;100.00
47366;BME280;33105;47.964;7.982;2024-03-06T02:27:57;96778.34;;;5.17;100.00
47366;BME280;33105;47.964;7.982;2024-03-06T02:30:59;96786.38;;;5.05;100.00
47366;BME280;33105;47.964;7.982;2024-03-06T02:34:01;96780.75;;;5.06;100.00
47366;BME280;33105;47.964;7.982;2024-03-06T02:37:06;96778.00;;;4.95;100.00
47366;BME280;33105;47.964;7.982;2024-03-06T02:40:07;96778.44;;;4.92;100.00
47366;BME280;33105;47.964;7.982;2024-03-06T02:43:10;96786.41;;;4.87;100.00
47366;BME280;33105;47.964;7.982;2024-03-06T02:46:12;96787.44;;;4.67;100.00
47366;BME280;33105;47.964;7.982;2024-03-06T02:49:13;96783.81;;;4.73;100.00
47366;BME280;33105;47.964;7.982;2024-03-06T02:52:14;96790.75;;;4.69;100.00
47366;BME280;33105;47.964;7.982;2024-03-06T02:55:16;96786.72;;;4.54;100.00
47366;BME280;33105;47.964;7.982;2024-03-06T02:58:17;96792.94;;;4.36;100.00
47366;BME280;33105;47.964;7.982;2024-03-06T03:01:59;96796.91;;;4.08;100.00
47366;BME280;33105;47.964;7.982;2024-03-06T03:06:10;96804.06;;;4.21;100.00
47366;BME280;33105;47.964;7.982;2024-03-06T03:28:34;96813.09;;;4.15;100.00
47366;BME280;33105;47.964;7.982;2024-03-06T03:31:35;96810.06;;;4.30;100.00
47366;BME280;33105;47.964;7.982;2024-03-06T03:34:39;96801.22;;;4.41;100.00
47366;BME280;33105;47.964;7.982;2024-03-06T03:37:40;96806.94;;;4.51;100.00
47366;BME280;33105;47.964;7.982;2024-03-06T03:40:44;96805.06;;;4.52;100.00
47366;BME280;33105;47.964;7.982;2024-03-06T03:43:45;96811.75;;;4.49;100.00
47366;BME280;33105;47.964;7.982;2024-03-06T03:46:47;96814.84;;;4.53;100.00
47366;BME280;33105;47.964;7.982;2024-03-06T03:54:18;96827.84;;;4.44;100.00
47366;BME280;33105;47.964;7.982;2024-03-06T03:58:22;96822.34;;;4.26;100.00
47366;BME280;33105;47.964;7.982;2024-03-06T04:01:27;96822.88;;;4.16;100.00
47366;BME280;33105;47.964;7.982;2024-03-06T04:04:48;96826.31;;;3.98;100.00
47366;BME280;33105;47.964;7.982;2024-03-06T04:07:50;96834.69;;;3.90;100.00
47366;BME280;33105;47.964;7.982;2024-03-06T04:10:51;96832.69;;;3.79;100.00
47366;BME280;33105;47.964;7.982;2024-03-06T04:13:53;96827.06;;;3.81;100.00
47366;BME280;33105;47.964;7.982;2024-03-06T04:17:13;96835.78;;;3.83;100.00
47366;BME280;33105;47.964;7.982;2024-03-06T04:20:30;96846.47;;;3.71;100.00
47366;BME280;33105;47.964;7.982;2024-03-06T04:24:10;96855.16;;;3.73;100.00
47366;BME280;33105;47.964;7.982;2024-03-06T04:30:58;96858.03;;;3.78;100.00
47366;BME280;33105;47.964;7.982;2024-03-06T04:34:12;96848.88;;;3.79;100.00
47366;BME280;33105;47.964;7.982;2024-03-06T04:37:13;96854.38;;;3.66;100.00
47366;BME280;33105;47.964;7.982;2024-03-06T04:40:20;96860.44;;;3.61;100.00
47366;BME280;33105;47.964;7.982;2024-03-06T04:43:23;96863.16;;;3.55;100.00
47366;BME280;33105;47.964;7.982;2024-03-06T04:46:24;96862.34;;;3.48;100.00
47366;BME280;33105;47.964;7.982;2024-03-06T04:49:25;96860.13;;;3.31;100.00
47366;BME280;33105;47.964;7.982;2024-03-06T04:52:27;96867.63;;;3.23;100.00
47366;BME280;33105;47.964;7.982;2024-03-06T04:55:28;96874.94;;;3.16;100.00
47366;BME280;33105;47.964;7.982;2024-03-06T04:58:31;96880.34;;;3.09;100.00
47366;BME280;33105;47.964;7.982;2024-03-06T05:01:32;96884.09;;;3.08;100.00
47366;BME280;33105;47.964;7.982;2024-03-06T05:04:33;96886.78;;;3.15;100.00
47366;BME280;33105;47.964;7.982;2024-03-06T05:07:35;96884.09;;;3.08;100.00
47366;BME280;33105;47.964;7.982;2024-03-06T05:10:36;96882.44;;;3.07;100.00
47366;BME280;33105;47.964;7.982;2024-03-06T05:13:37;96885.13;;;3.07;100.00
47366;BME280;33105;47.964;7.982;2024-03-06T05:16:38;96885.75;;;3.09;100.00
47366;BME280;33105;47.964;7.982;2024-03-06T05:19:40;96895.72;;;3.15;100.00
47366;BME280;33105;47.964;7.982;2024-03-06T05:22:47;96894.69;;;3.03;100.00
47366;BME280;33105;47.964;7.982;2024-03-06T05:25:58;96899.47;;;3.14;100.00
47366;BME280;33105;47.964;7.982;2024-03-06T05:29:00;96893.16;;;3.33;100.00
47366;BME280;33105;47.964;7.982;2024-03-06T05:32:07;96904.38;;;3.30;100.00
47366;BME280;33105;47.964;7.982;2024-03-06T05:35:08;96899.81;;;3.24;100.00
47366;BME280;33105;47.964;7.982;2024-03-06T05:38:13;96903.63;;;3.10;100.00
47366;BME280;33105;47.964;7.982;2024-03-06T05:41:14;96910.72;;;2.91;100.00
47366;BME280;33105;47.964;7.982;2024-03-06T05:44:16;96920.22;;;3.07;100.00
47366;BME280;33105;47.964;7.982;2024-03-06T05:47:17;96918.75;;;3.18;100.00
47366;BME280;33105;47.964;7.982;2024-03-06T05:50:19;96918.91;;;3.29;100.00
47366;BME280;33105;47.964;7.982;2024-03-06T05:53:20;96923.53;;;3.09;100.00
47366;BME280;33105;47.964;7.982;2024-03-06T05:56:22;96926.88;;;3.11;100.00
47366;BME280;33105;47.964;7.982;2024-03-06T05:59:23;96938.50;;;2.98;100.00
47366;BME280;33105;47.964;7.982;2024-03-06T06:02:25;96940.78;;;3.01;100.00
47366;BME280;33105;47.964;7.982;2024-03-06T06:05:32;96950.28;;;3.37;100.00
47366;BME280;33105;47.964;7.982;2024-03-06T06:08:58;96944.25;;;3.28;100.00
47366;BME280;33105;47.964;7.982;2024-03-06T06:12:00;96952.97;;;3.30;100.00
47366;BME280;33105;47.964;7.982;2024-03-06T06:15:01;96960.47;;;3.28;100.00
47366;BME280;33105;47.964;7.982;2024-03-06T06:18:02;96960.88;;;3.38;100.00
47366;BME280;33105;47.964;7.982;2024-03-06T06:21:11;96962.13;;;3.36;100.00
47366;BME280;33105;47.964;7.982;2024-03-06T06:24:16;96957.53;;;3.36;100.00
47366;BME280;33105;47.964;7.982;2024-03-06T06:27:26;96964.81;;;3.29;100.00
47366;BME280;33105;47.964;7.982;2024-03-06T06:30:29;96970.00;;;3.37;100.00
47366;BME280;33105;47.964;7.982;2024-03-06T06:33:31;96984.78;;;3.15;100.00
47366;BME280;33105;47.964;7.982;2024-03-06T06:36:32;96986.25;;;3.04;100.00
47366;BME280;33105;47.964;7.982;2024-03-06T06:39:33;96982.72;;;2.78;100.00
47366;BME280;33105;47.964;7.982;2024-03-06T06:42:35;96995.81;;;2.67;100.00
47366;BME280;33105;47.964;7.982;2024-03-06T06:45:37;96994.16;;;2.86;100.00
47366;BME280;33105;47.964;7.982;2024-03-06T06:48:39;96995.38;;;2.84;100.00
47366;BME280;33105;47.964;7.982;2024-03-06T06:51:40;97005.38;;;2.90;100.00
47366;BME280;33105;47.964;7.982;2024-03-06T06:54:41;97005.97;;;2.98;100.00
47366;BME280;33105;47.964;7.982;2024-03-06T06:57:42;97009.91;;;3.09;100.00
47366;BME280;33105;47.964;7.982;2024-03-06T07:00:44;97009.09;;;3.15;100.00
47366;BME280;33105;47.964;7.982;2024-03-06T07:03:47;97013.25;;;3.04;100.00
47366;BME280;33105;47.964;7.982;2024-03-06T07:06:48;97012.41;;;3.04;100.00
47366;BME280;33105;47.964;7.982;2024-03-06T07:09:49;97015.53;;;2.81;100.00
47366;BME280;33105;47.964;7.982;2024-03-06T07:12:51;97015.72;;;2.80;100.00
47366;BME280;33105;47.964;7.982;2024-03-06T07:15:52;97029.44;;;3.11;100.00
47366;BME280;33105;47.964;7.982;2024-03-06T07:18:53;97031.94;;;3.19;100.00
47366;BME280;33105;47.964;7.982;2024-03-06T07:21:55;97022.38;;;3.03;100.00
47366;BME280;33105;47.964;7.982;2024-03-06T07:24:56;97025.91;;;3.04;100.00
47366;BME280;33105;47.964;7.982;2024-03-06T07:28:14;97030.66;;;3.02;100.00
47366;BME280;33105;47.964;7.982;2024-03-06T07:32:17;97038.34;;;2.98;100.00
47366;BME280;33105;47.964;7.982;2024-03-06T07:35:39;97041.28;;;3.10;100.00
47366;BME280;33105;47.964;7.982;2024-03-06T07:38:59;97042.53;;;3.14;100.00
47366;BME280;33105;47.964;7.982;2024-03-06T07:42:23;97046.25;;;3.13;100.00
47366;BME280;33105;47.964;7.982;2024-03-06T07:54:37;97047.31;;;3.19;100.00
47366;BME280;33105;47.964;7.982;2024-03-06T07:57:52;97062.44;;;3.13;100.00
47366;BME280;33105;47.964;7.982;2024-03-06T08:01:07;97062.25;;;3.08;100.00
47366;BME280;33105;47.964;7.982;2024-03-06T08:04:31;97066.00;;;3.14;100.00
47366;BME280;33105;47.964;7.982;2024-03-06T08:07:36;97071.38;;;3.07;100.00
47366;BME280;33105;47.964;7.982;2024-03-06T08:10:38;97068.88;;;3.05;100.00
47366;BME280;33105;47.964;7.982;2024-03-06T08:13:48;97079.06;;;3.03;100.00
47366;BME280;33105;47.964;7.982;2024-03-06T08:16:59;97075.94;;;3.00;100.00
47366;BME280;33105;47.964;7.982;2024-03-06T08:24:09;97081.75;;;3.36;100.00
47366;BME280;33105;47.964;7.982;2024-03-06T08:28:09;97073.47;;;3.45;100.00
47366;BME280;33105;47.964;7.982;2024-03-06T08:31:51;97081.13;;;3.41;100.00
47366;BME280;33105;47.964;7.982;2024-03-06T08:43:50;97087.94;;;3.76;100.00
47366;BME280;33105;47.964;7.982;2024-03-06T08:52:14;97094.59;;;3.74;100.00
47366;BME280;33105;47.964;7.982;2024-03-06T08:55:54;97093.75;;;3.80;100.00
47366;BME280;33105;47.964;7.982;2024-03-06T08:59:40;97104.72;;;3.98;100.00
47366;BME280;33105;47.964;7.982;2024-03-06T09:02:45;97106.00;;;3.96;100.00
47366;BME280;33105;47.964;7.982;2024-03-06T09:15:14;97100.75;;;4.07;100.00
47366;BME280;33105;47.964;7.982;2024-03-06T09:19:25;97108.38;;;4.24;100.00
47366;BME280;33105;47.964;7.982;2024-03-06T09:22:26;97097.34;;;4.32;100.00
47366;BME280;33105;47.964;7.982;2024-03-06T09:25:27;97102.31;;;4.35;100.00
47366;BME280;33105;47.964;7.982;2024-03-06T09:28:30;97099.75;;;4.53;100.00
47366;BME280;33105;47.964;7.982;2024-03-06T09:31:31;97108.91;;;4.45;100.00
47366;BME280;33105;47.964;7.982;2024-03-06T09:34:32;97117.31;;;4.24;100.00
47366;BME280;33105;47.964;7.982;2024-03-06T09:37:34;97118.22;;;3.98;100.00
47366;BME280;33105;47.964;7.982;2024-03-06T09:40:35;97111.50;;;4.21;100.00
47366;BME280;33105;47.964;7.982;2024-03-06T09:43:37;97117.28;;;4.37;100.00
47366;BME280;33105;47.964;7.982;2024-03-06T09:46:38;97118.97;;;4.32;100.00
47366;BME280;33105;47.964;7.982;2024-03-06T09:49:41;97127.31;;;4.24;100.00
47366;BME280;33105;47.964;7.982;2024-03-06T09:52:43;97128.34;;;4.29;100.00
47366;BME280;33105;47.964;7.982;2024-03-06T09:55:47;97122.31;;;4.21;100.00
47366;BME280;33105;47.964;7.982;2024-03-06T09:58:50;97134.03;;;4.15;100.00
47366;BME280;33105;47.964;7.982;2024-03-06T10:01:57;97128.53;;;4.34;100.00
47366;BME280;33105;47.964;7.982;2024-03-06T10:04:58;97120.34;;;4.48;100.00
47366;BME280;33105;47.964;7.982;2024-03-06T10:08:06;97124.28;;;4.58;100.00
47366;BME280;33105;47.964;7.982;2024-03-06T10:11:07;97121.28;;;4.73;100.00
47366;BME280;33105;47.964;7.982;2024-03-06T10:14:08;97129.19;;;4.74;100.00
47366;BME280;33105;47.964;7.982;2024-03-06T10:17:19;97136.25;;;4.75;100.00
47366;BME280;33105;47.964;7.982;2024-03-06T10:20:21;97133.31;;;4.84;100.00
47366;BME280;33105;47.964;7.982;2024-03-06T10:23:23;97133.75;;;4.81;100.00
47366;BME280;33105;47.964;7.982;2024-03-06T10:26:25;97130.00;;;4.82;100.00
47366;BME280;33105;47.964;7.982;2024-03-06T10:29:29;97126.22;;;4.89;100.00
47366;BME280;33105;47.964;7.982;2024-03-06T10:32:30;97122.97;;;5.05;100.00
47366;BME280;33105;47.964;7.982;2024-03-06T10:35:32;97119.88;;;5.02;100.00
47366;BME280;33105;47.964;7.982;2024-03-06T10:38:36;97132.72;;;5.13;100.00
47366;BME280;33105;47.964;7.982;2024-03-06T10:41:40;97129.31;;;5.24;100.00
47366;BME280;33105;47.964;7.982;2024-03-06T10:44:53;97125.31;;;5.27;100.00
47366;BME280;33105;47.964;7.982;2024-03-06T10:47:56;97128.97;;;5.14;100.00
47366;BME280;33105;47.964;7.982;2024-03-06T10:50:59;97122.84;;;5.25;100.00
47366;BME280;33105;47.964;7.982;2024-03-06T10:54:00;97121.53;;;5.03;100.00
47366;BME280;33105;47.964;7.982;2024-03-06T10:57:02;97123.50;;;4.89;100.00
47366;BME280;33105;47.964;7.982;2024-03-06T11:00:04;97123.59;;;5.07;100.00
47366;BME280;33105;47.964;7.982;2024-03-06T11:03:07;97119.50;;;5.23;100.00
47366;BME280;33105;47.964;7.982;2024-03-06T11:06:09;97124.25;;;5.03;100.00
47366;BME280;33105;47.964;7.982;2024-03-06T11:09:10;97122.91;;;5.19;100.00
47366;BME280;33105;47.964;7.982;2024-03-06T11:12:37;97128.06;;;5.20;100.00
47366;BME280;33105;47.964;7.982;2024-03-06T11:15:40;97131.84;;;5.19;100.00
47366;BME280;33105;47.964;7.982;2024-03-06T11:18:42;97130.63;;;5.15;100.00
47366;BME280;33105;47.964;7.982;2024-03-06T11:21:46;97134.38;;;5.14;100.00
47366;BME280;33105;47.964;7.982;2024-03-06T11:24:48;97135.03;;;5.09;100.00
47366;BME280;33105;47.964;7.982;2024-03-06T11:28:03;97129.81;;;5.15;100.00
47366;BME280;33105;47.964;7.982;2024-03-06T11:31:06;97130.09;;;5.31;100.00
47366;BME280;33105;47.964;7.982;2024-03-06T11:34:11;97126.34;;;5.32;100.00
47366;BME280;33105;47.964;7.982;2024-03-06T11:37:12;97127.34;;;5.38;100.00
47366;BME280;33105;47.964;7.982;2024-03-06T11:40:14;97122.53;;;5.40;100.00
47366;BME280;33105;47.964;7.982;2024-03-06T11:43:25;97115.63;;;5.44;100.00
47366;BME280;33105;47.964;7.982;2024-03-06T11:46:47;97110.56;;;5.72;100.00
47366;BME280;33105;47.964;7.982;2024-03-06T11:49:49;97112.78;;;6.07;100.00
47366;BME280;33105;47.964;7.982;2024-03-06T11:52:51;97104.78;;;6.12;100.00
47366;BME280;33105;47.964;7.982;2024-03-06T11:55:52;97109.38;;;6.11;100.00
47366;BME280;33105;47.964;7.982;2024-03-06T11:58:54;97110.88;;;6.26;100.00
47366;BME280;33105;47.964;7.982;2024-03-06T12:01:57;97116.25;;;6.14;100.00
47366;BME280;33105;47.964;7.982;2024-03-06T12:05:02;97115.69;;;6.05;100.00
47366;BME280;33105;47.964;7.982;2024-03-06T12:08:06;97108.28;;;5.94;100.00
47366;BME280;33105;47.964;7.982;2024-03-06T12:11:08;97109.38;;;6.11;100.00
47366;BME280;33105;47.964;7.982;2024-03-06T12:14:14;97101.69;;;6.27;100.00
47366;BME280;33105;47.964;7.982;2024-03-06T12:17:17;97102.00;;;6.19;100.00
47366;BME280;33105;47.964;7.982;2024-03-06T12:20:19;97103.22;;;6.41;100.00
47366;BME280;33105;47.964;7.982;2024-03-06T12:23:21;97095.03;;;6.59;100.00
47366;BME280;33105;47.964;7.982;2024-03-06T12:26:23;97095.19;;;6.64;100.00
47366;BME280;33105;47.964;7.982;2024-03-06T12:29:28;97097.44;;;6.67;100.00
47366;BME280;33105;47.964;7.982;2024-03-06T12:32:31;97095.84;;;6.78;100.00
47366;BME280;33105;47.964;7.982;2024-03-06T12:35:32;97094.25;;;6.70;100.00
47366;BME280;33105;47.964;7.982;2024-03-06T12:38:33;97095.47;;;6.74;100.00
47366;BME280;33105;47.964;7.982;2024-03-06T12:41:34;97088.94;;;6.64;100.00
47366;BME280;33105;47.964;7.982;2024-03-06T12:44:36;97092.03;;;6.67;100.00
47366;BME280;33105;47.964;7.982;2024-03-06T12:47:37;97086.63;;;6.79;100.00
47366;BME280;33105;47.964;7.982;2024-03-06T12:50:38;97092.75;;;6.74;100.00
47366;BME280;33105;47.964;7.982;2024-03-06T12:53:39;97087.38;;;6.86;100.00
47366;BME280;33105;47.964;7.982;2024-03-06T12:56:42;97085.38;;;6.93;100.00
47366;BME280;33105;47.964;7.982;2024-03-06T12:59:43;97087.22;;;7.11;100.00
47366;BME280;33105;47.964;7.982;2024-03-06T13:02:45;97087.22;;;7.11;100.00
47366;BME280;33105;47.964;7.982;2024-03-06T13:05:46;97081.25;;;6.91;100.00
47366;BME280;33105;47.964;7.982;2024-03-06T13:08:47;97077.66;;;7.20;100.00
47366;BME280;33105;47.964;7.982;2024-03-06T13:11:49;97076.00;;;7.19;100.00
47366;BME280;33105;47.964;7.982;2024-03-06T13:14:50;97071.16;;;7.09;100.00
47366;BME280;33105;47.964;7.982;2024-03-06T13:17:51;97077.81;;;6.95;100.00
47366;BME280;33105;47.964;7.982;2024-03-06T13:20:53;97079.50;;;6.66;100.00
47366;BME280;33105;47.964;7.982;2024-03-06T13:23:55;97073.97;;;6.25;100.00
47366;BME280;33105;47.964;7.982;2024-03-06T13:26:56;97078.94;;;5.91;100.00
47366;BME280;33105;47.964;7.982;2024-03-06T13:29:57;97082.00;;;5.95;100.00
47366;BME280;33105;47.964;7.982;2024-03-06T13:32:59;97082.25;;;5.93;100.00
47366;BME280;33105;47.964;7.982;2024-03-06T13:36:00;97083.53;;;6.09;100.00
47366;BME280;33105;47.964;7.982;2024-03-06T13:39:01;97082.84;;;6.32;100.00
47366;BME280;33105;47.964;7.982;2024-03-06T13:42:02;97083.50;;;6.45;100.00
47366;BME280;33105;47.964;7.982;2024-03-06T13:45:04;97082.84;;;5.95;100.00
47366;BME280;33105;47.964;7.982;2024-03-06T13:48:14;97088.44;;;5.75;100.00
47366;BME280;33105;47.964;7.982;2024-03-06T13:51:19;97093.81;;;5.82;100.00
47366;BME280;33105;47.964;7.982;2024-03-06T13:54:20;97092.03;;;5.69;100.00
47366;BME280;33105;47.964;7.982;2024-03-06T13:57:21;97092.00;;;5.51;100.00
47366;BME280;33105;47.964;7.982;2024-03-06T14:00:22;97097.97;;;5.60;100.00
47366;BME280;33105;47.964;7.982;2024-03-06T14:03:24;97101.13;;;5.57;100.00
47366;BME280;33105;47.964;7.982;2024-03-06T14:06:25;97100.06;;;5.58;100.00
47366;BME280;33105;47.964;7.982;2024-03-06T14:09:26;97104.66;;;5.32;100.00
47366;BME280;33105;47.964;7.982;2024-03-06T14:12:28;97108.91;;;5.46;100.00
47366;BME280;33105;47.964;7.982;2024-03-06T14:15:29;97109.81;;;5.40;100.00
47366;BME280;33105;47.964;7.982;2024-03-06T14:18:30;97105.66;;;5.38;100.00
47366;BME280;33105;47.964;7.982;2024-03-06T14:21:31;97118.22;;;5.32;100.00
47366;BME280;33105;47.964;7.982;2024-03-06T14:24:33;97114.28;;;5.53;100.00
47366;BME280;33105;47.964;7.982;2024-03-06T14:27:34;97103.66;;;5.52;100.00
47366;BME280;33105;47.964;7.982;2024-03-06T14:30:36;97105.75;;;5.50;100.00
47366;BME280;33105;47.964;7.982;2024-03-06T14:33:39;97108.69;;;5.48;100.00
47366;BME280;33105;47.964;7.982;2024-03-06T14:36:41;97118.78;;;5.66;100.00
47366;BME280;33105;47.964;7.982;2024-03-06T14:39:43;97122.56;;;5.33;100.00
47366;BME280;33105;47.964;7.982;2024-03-06T14:42:44;97121.03;;;5.19;100.00
47366;BME280;33105;47.964;7.982;2024-03-06T14:45:45;97125.00;;;5.17;100.00
47366;BME280;33105;47.964;7.982;2024-03-06T14:48:46;97136.91;;;5.09;100.00
47366;BME280;33105;47.964;7.982;2024-03-06T14:51:48;97129.63;;;5.09;100.00
47366;BME280;33105;47.964;7.982;2024-03-06T14:54:49;97133.00;;;5.30;100.00
47366;BME280;33105;47.964;7.982;2024-03-06T14:57:50;97127.13;;;5.39;100.00
47366;BME280;33105;47.964;7.982;2024-03-06T15:00:51;97134.78;;;5.18;100.00
47366;BME280;33105;47.964;7.982;2024-03-06T15:03:54;97136.03;;;5.15;100.00
47366;BME280;33105;47.964;7.982;2024-03-06T15:06:55;97135.75;;;5.23;100.00
47366;BME280;33105;47.964;7.982;2024-03-06T15:09:56;97135.06;;;5.34;100.00
47366;BME280;33105;47.964;7.982;2024-03-06T15:12:58;97142.22;;;5.22;100.00
47366;BME280;33105;47.964;7.982;2024-03-06T15:16:00;97146.34;;;5.31;100.00
47366;BME280;33105;47.964;7.982;2024-03-06T15:19:01;97140.50;;;5.34;100.00
47366;BME280;33105;47.964;7.982;2024-03-06T15:22:04;97145.16;;;5.21;100.00
47366;BME280;33105;47.964;7.982;2024-03-06T15:25:05;97148.88;;;5.26;100.00
47366;BME280;33105;47.964;7.982;2024-03-06T15:28:08;97155.94;;;5.27;100.00
47366;BME280;33105;47.964;7.982;2024-03-06T15:31:10;97153.13;;;5.16;100.00
47366;BME280;33105;47.964;7.982;2024-03-06T15:34:11;97159.41;;;5.09;100.00
47366;BME280;33105;47.964;7.982;2024-03-06T15:37:13;97159.19;;;5.11;100.00
47366;BME280;33105;47.964;7.982;2024-03-06T15:40:14;97147.88;;;5.21;100.00
47366;BME280;33105;47.964;7.982;2024-03-06T15:43:16;97163.25;;;5.27;100.00
47366;BME280;33105;47.964;7.982;2024-03-06T15:46:18;97146.50;;;5.05;100.00
47366;BME280;33105;47.964;7.982;2024-03-06T15:49:20;97159.28;;;5.29;100.00
47366;BME280;33105;47.964;7.982;2024-03-06T15:52:22;97158.44;;;5.29;100.00
47366;BME280;33105;47.964;7.982;2024-03-06T15:55:23;97148.88;;;5.26;100.00
47366;BME280;33105;47.964;7.982;2024-03-06T15:58:25;97156.00;;;5.21;100.00
47366;BME280;33105;47.964;7.982;2024-03-06T16:01:26;97154.56;;;5.18;100.00
47366;BME280;33105;47.964;7.982;2024-03-06T16:04:27;97156.25;;;5.19;100.00
47366;BME280;33105;47.964;7.982;2024-03-06T16:07:29;97158.56;;;5.09;100.00
47366;BME280;33105;47.964;7.982;2024-03-06T16:10:32;97161.06;;;5.10;100.00
47366;BME280;33105;47.964;7.982;2024-03-06T16:13:35;97165.84;;;5.15;100.00
47366;BME280;33105;47.964;7.982;2024-03-06T16:16:36;97167.13;;;5.06;100.00
47366;BME280;33105;47.964;7.982;2024-03-06T16:19:40;97160.25;;;5.10;100.00
47366;BME280;33105;47.964;7.982;2024-03-06T16:22:41;97169.25;;;4.97;100.00
47366;BME280;33105;47.964;7.982;2024-03-06T16:25:42;97163.81;;;5.04;100.00
47366;BME280;33105;47.964;7.982;2024-03-06T16:28:44;97167.38;;;4.98;100.00
47366;BME280;33105;47.964;7.982;2024-03-06T16:31:46;97178.81;;;5.00;100.00
47366;BME280;33105;47.964;7.982;2024-03-06T16:34:47;97179.09;;;4.92;100.00
47366;BME280;33105;47.964;7.982;2024-03-06T16:37:48;97184.34;;;4.73;100.00
47366;BME280;33105;47.964;7.982;2024-03-06T16:40:51;97190.06;;;4.59;100.00
47366;BME280;33105;47.964;7.982;2024-03-06T16:43:53;97183.28;;;4.81;100.00
47366;BME280;33105;47.964;7.982;2024-03-06T16:46:55;97187.88;;;4.81;100.00
47366;BME280;33105;47.964;7.982;2024-03-06T16:49:56;97192.47;;;4.80;100.00
47366;BME280;33105;47.964;7.982;2024-03-06T16:52:57;97201.22;;;4.75;100.00
47366;BME280;33105;47.964;7.982;2024-03-06T16:55:58;97202.25;;;4.74;100.00
47366;BME280;33105;47.964;7.982;2024-03-06T16:59:00;97197.72;;;4.68;100.00
47366;BME280;33105;47.964;7.982;2024-03-06T17:02:01;97205.03;;;4.61;100.00
47366;BME280;33105;47.964;7.982;2024-03-06T17:05:02;97205.03;;;4.68;100.00
47366;BME280;33105;47.964;7.982;2024-03-06T17:08:03;97209.19;;;4.57;100.00
47366;BME280;33105;47.964;7.982;2024-03-06T17:11:08;97209.63;;;4.61;100.00
47366;BME280;33105;47.964;7.982;2024-03-06T17:14:10;97211.34;;;4.42;100.00
47366;BME280;33105;47.964;7.982;2024-03-06T17:17:11;97208.81;;;4.47;100.00
47366;BME280;33105;47.964;7.982;2024-03-06T17:20:13;97212.53;;;4.53;100.00
47366;BME280;33105;47.964;7.982;2024-03-06T17:23:14;97214.19;;;4.67;100.00